sensor_id;sensor_type;location;lat;lon;timestamp;P1;durP1;ratioP1;P2;durP2;ratioP2
9080;SDS011;13509;50.760;6.080;2023-06-26T00:00:50;4.87;;;4.23;;
9080;SDS011;13509;50.760;6.080;2023-06-26T00:03:18;8.07;;;4.50;;
9080;SDS011;13509;50.760;6.080;2023-06-26T00:05:46;7.17;;;4.40;;
9080;SDS011;13509;50.760;6.080;2023-06-26T00:08:16;5.33;;;4.37;;
9080;SDS011;13509;50.760;6.080;2023-06-26T00:10:45;5.10;;;4.47;;
9080;SDS011;13509;50.760;6.080;2023-06-26T00:13:13;6.07;;;4.57;;
9080;SDS011;13509;50.760;6.080;2023-06-26T00:15:43;5.07;;;4.57;;
9080;SDS011;13509;50.760;6.080;2023-06-26T00:18:11;6.83;;;4.60;;
9080;SDS011;13509;50.760;6.080;2023-06-26T00:20:39;4.47;;;4.07;;
9080;SDS011;13509;50.760;6.080;2023-06-26T00:23:07;6.47;;;4.40;;
9080;SDS011;13509;50.760;6.080;2023-06-26T00:25:36;4.90;;;4.20;;
9080;SDS011;13509;50.760;6.080;2023-06-26T00:28:04;5.63;;;4.67;;
9080;SDS011;13509;50.760;6.080;2023-06-26T00:30:32;5.10;;;4.50;;
9080;SDS011;13509;50.760;6.080;2023-06-26T00:33:02;5.43;;;4.50;;
9080;SDS011;13509;50.760;6.080;2023-06-26T00:35:31;4.93;;;4.30;;
9080;SDS011;13509;50.760;6.080;2023-06-26T00:37:59;6.10;;;4.20;;
9080;SDS011;13509;50.760;6.080;2023-06-26T00:40:27;4.97;;;4.27;;
9080;SDS011;13509;50.760;6.080;2023-06-26T00:42:55;6.83;;;4.80;;
9080;SDS011;13509;50.760;6.080;2023-06-26T00:45:24;5.50;;;4.73;;
9080;SDS011;13509;50.760;6.080;2023-06-26T00:48:09;5.23;;;4.53;;
9080;SDS011;13509;50.760;6.080;2023-06-26T00:50:39;5.60;;;4.27;;
9080;SDS011;13509;50.760;6.080;2023-06-26T00:53:07;5.67;;;4.40;;
9080;SDS011;13509;50.760;6.080;2023-06-26T00:55:37;7.93;;;4.87;;
9080;SDS011;13509;50.760;6.080;2023-06-26T00:58:05;6.47;;;4.20;;
9080;SDS011;13509;50.760;6.080;2023-06-26T01:00:33;6.03;;;4.40;;
9080;SDS011;13509;50.760;6.080;2023-06-26T01:03:02;5.70;;;4.57;;
9080;SDS011;13509;50.760;6.080;2023-06-26T01:05:32;5.37;;;4.50;;
9080;SDS011;13509;50.760;6.080;2023-06-26T01:08:00;6.00;;;5.00;;
9080;SDS011;13509;50.760;6.080;2023-06-26T01:10:29;5.27;;;4.10;;
9080;SDS011;13509;50.760;6.080;2023-06-26T01:12:58;6.57;;;5.13;;
9080;SDS011;13509;50.760;6.080;2023-06-26T01:15:27;5.93;;;4.83;;
9080;SDS011;13509;50.760;6.080;2023-06-26T01:17:55;4.73;;;4.23;;
9080;SDS011;13509;50.760;6.080;2023-06-26T01:20:31;5.33;;;4.60;;
9080;SDS011;13509;50.760;6.080;2023-06-26T01:23:03;5.77;;;4.90;;
9080;SDS011;13509;50.760;6.080;2023-06-26T01:25:33;5.07;;;4.57;;
9080;SDS011;13509;50.760;6.080;2023-06-26T01:28:06;5.00;;;4.47;;
9080;SDS011;13509;50.760;6.080;2023-06-26T01:30:37;5.13;;;4.63;;
9080;SDS011;13509;50.760;6.080;2023-06-26T01:33:06;6.23;;;4.40;;
9080;SDS011;13509;50.760;6.080;2023-06-26T01:35:34;5.43;;;4.93;;
9080;SDS011;13509;50.760;6.080;2023-06-26T01:38:12;6.60;;;4.70;;
9080;SDS011;13509;50.760;6.080;2023-06-26T01:40:41;5.83;;;4.73;;
9080;SDS011;13509;50.760;6.080;2023-06-26T01:43:15;10.10;;;4.60;;
9080;SDS011;13509;50.760;6.080;2023-06-26T01:45:48;5.83;;;5.20;;
9080;SDS011;13509;50.760;6.080;2023-06-26T01:48:20;5.33;;;4.83;;
9080;SDS011;13509;50.760;6.080;2023-06-26T01:50:53;6.43;;;4.87;;
9080;SDS011;13509;50.760;6.080;2023-06-26T01:53:25;5.73;;;5.10;;
9080;SDS011;13509;50.760;6.080;2023-06-26T01:56:00;6.20;;;5.13;;
9080;SDS011;13509;50.760;6.080;2023-06-26T01:58:35;5.57;;;4.77;;
9080;SDS011;13509;50.760;6.080;2023-06-26T02:01:04;6.17;;;5.20;;
9080;SDS011;13509;50.760;6.080;2023-06-26T02:03:32;6.17;;;5.03;;
9080;SDS011;13509;50.760;6.080;2023-06-26T02:06:00;5.90;;;5.13;;
9080;SDS011;13509;50.760;6.080;2023-06-26T02:08:28;5.70;;;4.60;;
9080;SDS011;13509;50.760;6.080;2023-06-26T02:10:56;6.53;;;4.67;;
9080;SDS011;13509;50.760;6.080;2023-06-26T02:13:24;8.00;;;4.90;;
9080;SDS011;13509;50.760;6.080;2023-06-26T02:15:53;6.87;;;4.77;;
9080;SDS011;13509;50.760;6.080;2023-06-26T02:18:22;7.17;;;5.27;;
9080;SDS011;13509;50.760;6.080;2023-06-26T02:20:50;6.93;;;5.03;;
9080;SDS011;13509;50.760;6.080;2023-06-26T02:23:18;5.93;;;5.13;;
9080;SDS011;13509;50.760;6.080;2023-06-26T02:25:46;6.37;;;4.50;;
9080;SDS011;13509;50.760;6.080;2023-06-26T02:28:14;6.53;;;5.43;;
9080;SDS011;13509;50.760;6.080;2023-06-26T02:30:42;7.23;;;5.03;;
9080;SDS011;13509;50.760;6.080;2023-06-26T02:33:11;6.87;;;5.03;;
9080;SDS011;13509;50.760;6.080;2023-06-26T02:35:39;6.23;;;5.03;;
9080;SDS011;13509;50.760;6.080;2023-06-26T02:38:07;5.80;;;5.30;;
9080;SDS011;13509;50.760;6.080;2023-06-26T02:40:35;12.20;;;5.77;;
9080;SDS011;13509;50.760;6.080;2023-06-26T02:43:04;6.67;;;5.67;;
9080;SDS011;13509;50.760;6.080;2023-06-26T02:45:32;6.03;;;4.97;;
9080;SDS011;13509;50.760;6.080;2023-06-26T02:48:00;7.60;;;5.57;;
9080;SDS011;13509;50.760;6.080;2023-06-26T02:50:29;8.50;;;5.30;;
9080;SDS011;13509;50.760;6.080;2023-06-26T02:52:57;6.60;;;5.10;;
9080;SDS011;13509;50.760;6.080;2023-06-26T02:55:25;8.60;;;5.00;;
9080;SDS011;13509;50.760;6.080;2023-06-26T02:57:53;9.67;;;4.90;;
9080;SDS011;13509;50.760;6.080;2023-06-26T03:00:21;5.83;;;5.00;;
9080;SDS011;13509;50.760;6.080;2023-06-26T03:02:49;5.43;;;4.57;;
9080;SDS011;13509;50.760;6.080;2023-06-26T03:05:18;6.17;;;4.90;;
9080;SDS011;13509;50.760;6.080;2023-06-26T03:07:47;6.93;;;5.00;;
9080;SDS011;13509;50.760;6.080;2023-06-26T03:10:15;6.57;;;4.33;;
9080;SDS011;13509;50.760;6.080;2023-06-26T03:12:43;5.60;;;4.67;;
9080;SDS011;13509;50.760;6.080;2023-06-26T03:15:10;6.30;;;4.33;;
9080;SDS011;13509;50.760;6.080;2023-06-26T03:17:38;6.00;;;4.23;;
9080;SDS011;13509;50.760;6.080;2023-06-26T03:20:07;7.80;;;4.40;;
9080;SDS011;13509;50.760;6.080;2023-06-26T03:22:36;5.53;;;4.60;;
9080;SDS011;13509;50.760;6.080;2023-06-26T03:25:05;6.63;;;4.80;;
9080;SDS011;13509;50.760;6.080;2023-06-26T03:27:34;6.20;;;5.13;;
9080;SDS011;13509;50.760;6.080;2023-06-26T03:30:02;5.93;;;4.80;;
9080;SDS011;13509;50.760;6.080;2023-06-26T03:32:30;6.20;;;4.90;;
9080;SDS011;13509;50.760;6.080;2023-06-26T03:34:58;8.23;;;4.80;;
9080;SDS011;13509;50.760;6.080;2023-06-26T03:37:27;6.90;;;4.50;;
9080;SDS011;13509;50.760;6.080;2023-06-26T03:39:55;5.70;;;5.10;;
9080;SDS011;13509;50.760;6.080;2023-06-26T03:42:24;7.60;;;4.90;;
9080;SDS011;13509;50.760;6.080;2023-06-26T03:44:52;7.03;;;5.20;;
9080;SDS011;13509;50.760;6.080;2023-06-26T03:47:20;5.23;;;4.57;;
9080;SDS011;13509;50.760;6.080;2023-06-26T03:49:48;6.73;;;5.00;;
9080;SDS011;13509;50.760;6.080;2023-06-26T03:52:16;7.83;;;5.10;;
9080;SDS011;13509;50.760;6.080;2023-06-26T03:54:44;6.23;;;4.70;;
9080;SDS011;13509;50.760;6.080;2023-06-26T03:57:11;5.97;;;4.57;;
9080;SDS011;13509;50.760;6.080;2023-06-26T03:59:41;5.80;;;4.93;;
9080;SDS011;13509;50.760;6.080;2023-06-26T04:02:09;7.77;;;4.73;;
9080;SDS011;13509;50.760;6.080;2023-06-26T04:04:39;7.63;;;5.13;;
9080;SDS011;13509;50.760;6.080;2023-06-26T04:07:07;6.33;;;4.43;;
9080;SDS011;13509;50.760;6.080;2023-06-26T04:09:35;9.83;;;4.80;;
9080;SDS011;13509;50.760;6.080;2023-06-26T04:12:03;8.87;;;4.73;;
9080;SDS011;13509;50.760;6.080;2023-06-26T04:14:32;6.73;;;4.40;;
9080;SDS011;13509;50.760;6.080;2023-06-26T04:17:01;5.13;;;4.27;;
9080;SDS011;13509;50.760;6.080;2023-06-26T04:19:30;14.70;;;4.50;;
9080;SDS011;13509;50.760;6.080;2023-06-26T04:22:00;6.20;;;4.23;;
9080;SDS011;13509;50.760;6.080;2023-06-26T04:24:28;8.30;;;3.83;;
9080;SDS011;13509;50.760;6.080;2023-06-26T04:26:56;4.87;;;3.70;;
9080;SDS011;13509;50.760;6.080;2023-06-26T04:29:25;11.43;;;4.07;;
9080;SDS011;13509;50.760;6.080;2023-06-26T04:31:53;8.40;;;3.87;;
9080;SDS011;13509;50.760;6.080;2023-06-26T04:34:26;5.73;;;3.70;;
9080;SDS011;13509;50.760;6.080;2023-06-26T04:36:54;6.60;;;3.70;;
9080;SDS011;13509;50.760;6.080;2023-06-26T04:39:22;5.53;;;3.50;;
9080;SDS011;13509;50.760;6.080;2023-06-26T04:41:51;6.87;;;3.40;;
9080;SDS011;13509;50.760;6.080;2023-06-26T04:44:19;4.63;;;3.27;;
9080;SDS011;13509;50.760;6.080;2023-06-26T04:46:47;4.37;;;3.03;;
9080;SDS011;13509;50.760;6.080;2023-06-26T04:49:18;6.80;;;3.07;;
9080;SDS011;13509;50.760;6.080;2023-06-26T04:51:48;5.13;;;3.30;;
9080;SDS011;13509;50.760;6.080;2023-06-26T04:54:17;6.53;;;3.00;;
9080;SDS011;13509;50.760;6.080;2023-06-26T04:56:45;4.33;;;3.03;;
9080;SDS011;13509;50.760;6.080;2023-06-26T04:59:14;3.40;;;2.73;;
9080;SDS011;13509;50.760;6.080;2023-06-26T05:01:42;6.03;;;3.20;;
9080;SDS011;13509;50.760;6.080;2023-06-26T05:04:14;5.67;;;3.00;;
9080;SDS011;13509;50.760;6.080;2023-06-26T05:06:42;7.77;;;3.60;;
9080;SDS011;13509;50.760;6.080;2023-06-26T05:09:12;7.73;;;4.00;;
9080;SDS011;13509;50.760;6.080;2023-06-26T05:11:40;4.20;;;3.30;;
9080;SDS011;13509;50.760;6.080;2023-06-26T05:14:09;6.00;;;3.60;;
9080;SDS011;13509;50.760;6.080;2023-06-26T05:16:37;6.83;;;3.40;;
9080;SDS011;13509;50.760;6.080;2023-06-26T05:19:05;11.00;;;4.50;;
9080;SDS011;13509;50.760;6.080;2023-06-26T05:21:34;8.57;;;4.10;;
9080;SDS011;13509;50.760;6.080;2023-06-26T05:24:02;6.20;;;3.60;;
9080;SDS011;13509;50.760;6.080;2023-06-26T05:26:33;6.93;;;3.60;;
9080;SDS011;13509;50.760;6.080;2023-06-26T05:29:01;5.30;;;3.03;;
9080;SDS011;13509;50.760;6.080;2023-06-26T05:31:30;5.63;;;3.10;;
9080;SDS011;13509;50.760;6.080;2023-06-26T05:33:59;7.87;;;3.50;;
9080;SDS011;13509;50.760;6.080;2023-06-26T05:36:29;10.40;;;3.53;;
9080;SDS011;13509;50.760;6.080;2023-06-26T05:38:59;10.50;;;4.03;;
9080;SDS011;13509;50.760;6.080;2023-06-26T05:41:28;8.53;;;3.63;;
9080;SDS011;13509;50.760;6.080;2023-06-26T05:43:58;7.53;;;3.63;;
9080;SDS011;13509;50.760;6.080;2023-06-26T05:46:26;11.13;;;3.60;;
9080;SDS011;13509;50.760;6.080;2023-06-26T05:48:54;7.27;;;3.53;;
9080;SDS011;13509;50.760;6.080;2023-06-26T05:51:23;6.17;;;3.67;;
9080;SDS011;13509;50.760;6.080;2023-06-26T05:53:51;8.93;;;4.00;;
9080;SDS011;13509;50.760;6.080;2023-06-26T05:56:20;7.93;;;3.70;;
9080;SDS011;13509;50.760;6.080;2023-06-26T05:58:48;8.50;;;3.70;;
9080;SDS011;13509;50.760;6.080;2023-06-26T06:01:19;9.30;;;3.17;;
9080;SDS011;13509;50.760;6.080;2023-06-26T06:03:47;8.73;;;3.70;;
9080;SDS011;13509;50.760;6.080;2023-06-26T06:06:15;7.83;;;3.73;;
9080;SDS011;13509;50.760;6.080;2023-06-26T06:08:44;6.67;;;3.70;;
9080;SDS011;13509;50.760;6.080;2023-06-26T06:11:15;16.37;;;4.10;;
9080;SDS011;13509;50.760;6.080;2023-06-26T06:13:43;7.23;;;3.83;;
9080;SDS011;13509;50.760;6.080;2023-06-26T06:16:11;7.33;;;3.33;;
9080;SDS011;13509;50.760;6.080;2023-06-26T06:18:41;7.63;;;3.43;;
9080;SDS011;13509;50.760;6.080;2023-06-26T06:21:09;9.77;;;4.03;;
9080;SDS011;13509;50.760;6.080;2023-06-26T06:23:37;6.97;;;3.77;;
9080;SDS011;13509;50.760;6.080;2023-06-26T06:26:05;8.13;;;3.83;;
9080;SDS011;13509;50.760;6.080;2023-06-26T06:28:33;9.63;;;4.17;;
9080;SDS011;13509;50.760;6.080;2023-06-26T06:31:02;6.97;;;4.20;;
9080;SDS011;13509;50.760;6.080;2023-06-26T06:33:30;9.37;;;4.20;;
9080;SDS011;13509;50.760;6.080;2023-06-26T06:35:59;9.67;;;4.40;;
9080;SDS011;13509;50.760;6.080;2023-06-26T06:38:28;7.60;;;4.00;;
9080;SDS011;13509;50.760;6.080;2023-06-26T06:40:56;7.67;;;3.90;;
9080;SDS011;13509;50.760;6.080;2023-06-26T06:43:24;10.10;;;3.90;;
9080;SDS011;13509;50.760;6.080;2023-06-26T06:45:53;10.87;;;4.03;;
9080;SDS011;13509;50.760;6.080;2023-06-26T06:48:21;8.37;;;3.67;;
9080;SDS011;13509;50.760;6.080;2023-06-26T06:50:50;6.87;;;3.50;;
9080;SDS011;13509;50.760;6.080;2023-06-26T06:53:19;7.30;;;3.53;;
9080;SDS011;13509;50.760;6.080;2023-06-26T06:55:47;6.90;;;3.23;;
9080;SDS011;13509;50.760;6.080;2023-06-26T06:58:16;9.57;;;3.80;;
9080;SDS011;13509;50.760;6.080;2023-06-26T07:00:45;10.30;;;3.50;;
9080;SDS011;13509;50.760;6.080;2023-06-26T07:03:13;8.63;;;3.60;;
9080;SDS011;13509;50.760;6.080;2023-06-26T07:05:42;6.57;;;3.73;;
9080;SDS011;13509;50.760;6.080;2023-06-26T07:08:10;9.10;;;3.83;;
9080;SDS011;13509;50.760;6.080;2023-06-26T07:10:40;7.60;;;3.70;;
9080;SDS011;13509;50.760;6.080;2023-06-26T07:13:09;6.33;;;3.30;;
9080;SDS011;13509;50.760;6.080;2023-06-26T07:15:37;8.67;;;3.00;;
9080;SDS011;13509;50.760;6.080;2023-06-26T07:18:05;10.40;;;3.13;;
9080;SDS011;13509;50.760;6.080;2023-06-26T07:20:34;7.33;;;3.17;;
9080;SDS011;13509;50.760;6.080;2023-06-26T07:23:02;5.47;;;3.00;;
9080;SDS011;13509;50.760;6.080;2023-06-26T07:25:30;8.17;;;3.37;;
9080;SDS011;13509;50.760;6.080;2023-06-26T07:28:00;4.90;;;2.87;;
9080;SDS011;13509;50.760;6.080;2023-06-26T07:30:29;8.03;;;3.20;;
9080;SDS011;13509;50.760;6.080;2023-06-26T07:32:57;8.23;;;3.27;;
9080;SDS011;13509;50.760;6.080;2023-06-26T07:35:25;11.77;;;3.33;;
9080;SDS011;13509;50.760;6.080;2023-06-26T07:37:53;11.43;;;3.70;;
9080;SDS011;13509;50.760;6.080;2023-06-26T07:40:22;6.47;;;2.83;;
9080;SDS011;13509;50.760;6.080;2023-06-26T07:42:50;8.73;;;3.30;;
9080;SDS011;13509;50.760;6.080;2023-06-26T07:45:21;7.77;;;3.27;;
9080;SDS011;13509;50.760;6.080;2023-06-26T07:47:52;8.83;;;3.57;;
9080;SDS011;13509;50.760;6.080;2023-06-26T07:50:20;6.47;;;3.03;;
9080;SDS011;13509;50.760;6.080;2023-06-26T07:52:50;7.60;;;3.33;;
9080;SDS011;13509;50.760;6.080;2023-06-26T07:55:19;5.77;;;2.80;;
9080;SDS011;13509;50.760;6.080;2023-06-26T07:57:48;10.80;;;3.27;;
9080;SDS011;13509;50.760;6.080;2023-06-26T08:00:18;8.37;;;3.17;;
9080;SDS011;13509;50.760;6.080;2023-06-26T08:02:47;7.37;;;2.80;;
9080;SDS011;13509;50.760;6.080;2023-06-26T08:05:16;7.20;;;3.03;;
9080;SDS011;13509;50.760;6.080;2023-06-26T08:07:44;7.37;;;2.70;;
9080;SDS011;13509;50.760;6.080;2023-06-26T08:10:13;7.15;;;2.50;;
9080;SDS011;13509;50.760;6.080;2023-06-26T08:12:41;8.05;;;3.05;;
9080;SDS011;13509;50.760;6.080;2023-06-26T08:15:11;5.75;;;2.88;;
9080;SDS011;13509;50.760;6.080;2023-06-26T08:17:39;5.95;;;2.50;;
9080;SDS011;13509;50.760;6.080;2023-06-26T08:20:09;7.75;;;2.60;;
9080;SDS011;13509;50.760;6.080;2023-06-26T08:22:38;6.97;;;2.50;;
9080;SDS011;13509;50.760;6.080;2023-06-26T08:25:06;9.88;;;3.20;;
9080;SDS011;13509;50.760;6.080;2023-06-26T08:27:35;7.85;;;2.65;;
9080;SDS011;13509;50.760;6.080;2023-06-26T08:30:03;4.68;;;2.50;;
9080;SDS011;13509;50.760;6.080;2023-06-26T08:32:31;9.40;;;2.60;;
9080;SDS011;13509;50.760;6.080;2023-06-26T08:35:00;7.03;;;2.33;;
9080;SDS011;13509;50.760;6.080;2023-06-26T08:37:29;5.13;;;2.35;;
9080;SDS011;13509;50.760;6.080;2023-06-26T08:39:59;7.57;;;2.70;;
9080;SDS011;13509;50.760;6.080;2023-06-26T08:42:27;5.88;;;2.33;;
9080;SDS011;13509;50.760;6.080;2023-06-26T08:44:55;7.82;;;2.60;;
9080;SDS011;13509;50.760;6.080;2023-06-26T08:47:27;6.93;;;2.33;;
9080;SDS011;13509;50.760;6.080;2023-06-26T08:50:00;7.10;;;2.58;;
9080;SDS011;13509;50.760;6.080;2023-06-26T08:52:33;6.00;;;2.45;;
9080;SDS011;13509;50.760;6.080;2023-06-26T08:55:06;8.20;;;2.85;;
9080;SDS011;13509;50.760;6.080;2023-06-26T08:57:35;10.82;;;2.40;;
9080;SDS011;13509;50.760;6.080;2023-06-26T09:00:05;4.25;;;2.25;;
9080;SDS011;13509;50.760;6.080;2023-06-26T09:02:35;5.07;;;2.42;;
9080;SDS011;13509;50.760;6.080;2023-06-26T09:05:03;6.45;;;2.35;;
9080;SDS011;13509;50.760;6.080;2023-06-26T09:07:33;6.18;;;2.08;;
9080;SDS011;13509;50.760;6.080;2023-06-26T09:10:01;7.57;;;2.63;;
9080;SDS011;13509;50.760;6.080;2023-06-26T09:12:29;9.95;;;2.60;;
9080;SDS011;13509;50.760;6.080;2023-06-26T09:14:59;4.55;;;2.13;;
9080;SDS011;13509;50.760;6.080;2023-06-26T09:17:29;6.22;;;2.10;;
9080;SDS011;13509;50.760;6.080;2023-06-26T09:19:58;7.65;;;2.33;;
9080;SDS011;13509;50.760;6.080;2023-06-26T09:22:26;8.20;;;2.67;;
9080;SDS011;13509;50.760;6.080;2023-06-26T09:24:56;7.28;;;2.45;;
9080;SDS011;13509;50.760;6.080;2023-06-26T09:27:24;6.78;;;2.33;;
9080;SDS011;13509;50.760;6.080;2023-06-26T09:29:53;4.30;;;2.30;;
9080;SDS011;13509;50.760;6.080;2023-06-26T09:32:23;5.28;;;2.13;;
9080;SDS011;13509;50.760;6.080;2023-06-26T09:34:52;5.63;;;2.20;;
9080;SDS011;13509;50.760;6.080;2023-06-26T09:37:21;8.32;;;2.28;;
9080;SDS011;13509;50.760;6.080;2023-06-26T09:39:50;7.13;;;2.53;;
9080;SDS011;13509;50.760;6.080;2023-06-26T09:42:20;8.50;;;2.33;;
9080;SDS011;13509;50.760;6.080;2023-06-26T09:44:49;6.28;;;2.40;;
9080;SDS011;13509;50.760;6.080;2023-06-26T09:47:18;7.45;;;2.45;;
9080;SDS011;13509;50.760;6.080;2023-06-26T09:49:49;5.53;;;2.35;;
9080;SDS011;13509;50.760;6.080;2023-06-26T09:52:18;5.43;;;2.20;;
9080;SDS011;13509;50.760;6.080;2023-06-26T09:54:47;7.82;;;2.40;;
9080;SDS011;13509;50.760;6.080;2023-06-26T09:57:16;5.95;;;2.40;;
9080;SDS011;13509;50.760;6.080;2023-06-26T09:59:46;4.05;;;1.90;;
9080;SDS011;13509;50.760;6.080;2023-06-26T10:02:14;9.68;;;2.20;;
9080;SDS011;13509;50.760;6.080;2023-06-26T10:04:42;6.75;;;2.35;;
9080;SDS011;13509;50.760;6.080;2023-06-26T10:07:11;5.30;;;1.98;;
9080;SDS011;13509;50.760;6.080;2023-06-26T10:09:40;6.13;;;2.00;;
9080;SDS011;13509;50.760;6.080;2023-06-26T10:12:10;6.25;;;1.75;;
9080;SDS011;13509;50.760;6.080;2023-06-26T10:14:39;4.88;;;1.85;;
9080;SDS011;13509;50.760;6.080;2023-06-26T10:17:15;5.25;;;2.35;;
9080;SDS011;13509;50.760;6.080;2023-06-26T10:19:44;12.48;;;2.38;;
9080;SDS011;13509;50.760;6.080;2023-06-26T10:22:14;5.50;;;2.10;;
9080;SDS011;13509;50.760;6.080;2023-06-26T10:24:43;4.85;;;2.10;;
9080;SDS011;13509;50.760;6.080;2023-06-26T10:27:14;10.90;;;2.25;;
9080;SDS011;13509;50.760;6.080;2023-06-26T10:29:43;6.63;;;2.20;;
9080;SDS011;13509;50.760;6.080;2023-06-26T10:32:15;5.00;;;2.10;;
9080;SDS011;13509;50.760;6.080;2023-06-26T10:34:45;7.83;;;2.10;;
9080;SDS011;13509;50.760;6.080;2023-06-26T10:37:13;5.00;;;1.85;;
9080;SDS011;13509;50.760;6.080;2023-06-26T10:39:47;5.10;;;2.30;;
9080;SDS011;13509;50.760;6.080;2023-06-26T10:42:16;4.80;;;1.90;;
9080;SDS011;13509;50.760;6.080;2023-06-26T10:44:46;5.57;;;1.97;;
9080;SDS011;13509;50.760;6.080;2023-06-26T10:55:32;6.60;;;1.97;;
9080;SDS011;13509;50.760;6.080;2023-06-26T10:58:01;5.87;;;2.23;;
9080;SDS011;13509;50.760;6.080;2023-06-26T11:00:29;5.60;;;2.47;;
9080;SDS011;13509;50.760;6.080;2023-06-26T11:02:58;4.67;;;2.03;;
9080;SDS011;13509;50.760;6.080;2023-06-26T11:05:27;5.93;;;2.30;;
9080;SDS011;13509;50.760;6.080;2023-06-26T11:08:02;8.83;;;2.50;;
9080;SDS011;13509;50.760;6.080;2023-06-26T11:13:16;4.37;;;1.80;;
9080;SDS011;13509;50.760;6.080;2023-06-26T11:15:44;2.80;;;1.60;;
9080;SDS011;13509;50.760;6.080;2023-06-26T11:18:13;8.23;;;2.40;;
9080;SDS011;13509;50.760;6.080;2023-06-26T11:20:41;6.27;;;2.40;;
9080;SDS011;13509;50.760;6.080;2023-06-26T11:23:09;5.90;;;2.50;;
9080;SDS011;13509;50.760;6.080;2023-06-26T11:25:38;4.87;;;2.13;;
9080;SDS011;13509;50.760;6.080;2023-06-26T11:28:09;5.30;;;2.17;;
9080;SDS011;13509;50.760;6.080;2023-06-26T11:30:39;10.73;;;2.70;;
9080;SDS011;13509;50.760;6.080;2023-06-26T11:33:08;5.37;;;1.63;;
9080;SDS011;13509;50.760;6.080;2023-06-26T11:35:37;3.93;;;1.97;;
9080;SDS011;13509;50.760;6.080;2023-06-26T11:38:05;6.43;;;1.83;;
9080;SDS011;13509;50.760;6.080;2023-06-26T11:40:36;3.93;;;2.03;;
9080;SDS011;13509;50.760;6.080;2023-06-26T11:43:04;4.33;;;1.57;;
9080;SDS011;13509;50.760;6.080;2023-06-26T11:45:34;7.50;;;2.00;;
9080;SDS011;13509;50.760;6.080;2023-06-26T11:48:04;4.63;;;2.33;;
9080;SDS011;13509;50.760;6.080;2023-06-26T11:50:36;3.13;;;1.70;;
9080;SDS011;13509;50.760;6.080;2023-06-26T11:53:05;4.57;;;1.70;;
9080;SDS011;13509;50.760;6.080;2023-06-26T11:55:40;5.00;;;1.87;;
9080;SDS011;13509;50.760;6.080;2023-06-26T11:58:08;3.47;;;1.40;;
9080;SDS011;13509;50.760;6.080;2023-06-26T12:00:40;6.00;;;2.00;;
9080;SDS011;13509;50.760;6.080;2023-06-26T12:03:10;2.40;;;1.47;;
9080;SDS011;13509;50.760;6.080;2023-06-26T12:05:38;5.63;;;1.50;;
9080;SDS011;13509;50.760;6.080;2023-06-26T12:08:07;3.90;;;1.67;;
9080;SDS011;13509;50.760;6.080;2023-06-26T12:10:35;6.90;;;2.33;;
9080;SDS011;13509;50.760;6.080;2023-06-26T12:13:04;10.30;;;1.93;;
9080;SDS011;13509;50.760;6.080;2023-06-26T12:15:32;3.13;;;1.43;;
9080;SDS011;13509;50.760;6.080;2023-06-26T12:18:07;4.77;;;1.47;;
9080;SDS011;13509;50.760;6.080;2023-06-26T12:20:39;3.13;;;1.60;;
9080;SDS011;13509;50.760;6.080;2023-06-26T12:23:13;3.07;;;1.67;;
9080;SDS011;13509;50.760;6.080;2023-06-26T12:25:41;6.37;;;1.70;;
9080;SDS011;13509;50.760;6.080;2023-06-26T12:28:16;6.13;;;2.40;;
9080;SDS011;13509;50.760;6.080;2023-06-26T12:30:54;8.37;;;2.77;;
9080;SDS011;13509;50.760;6.080;2023-06-26T12:33:36;4.90;;;1.97;;
9080;SDS011;13509;50.760;6.080;2023-06-26T12:36:05;5.77;;;1.47;;
9080;SDS011;13509;50.760;6.080;2023-06-26T12:38:37;4.63;;;1.70;;
9080;SDS011;13509;50.760;6.080;2023-06-26T12:41:11;6.27;;;1.60;;
9080;SDS011;13509;50.760;6.080;2023-06-26T12:43:40;3.90;;;1.73;;
9080;SDS011;13509;50.760;6.080;2023-06-26T12:46:08;6.07;;;1.60;;
9080;SDS011;13509;50.760;6.080;2023-06-26T12:48:37;7.40;;;1.60;;
9080;SDS011;13509;50.760;6.080;2023-06-26T12:51:11;4.03;;;1.60;;
9080;SDS011;13509;50.760;6.080;2023-06-26T12:53:40;5.30;;;2.00;;
9080;SDS011;13509;50.760;6.080;2023-06-26T12:56:09;2.30;;;1.40;;
9080;SDS011;13509;50.760;6.080;2023-06-26T12:58:37;4.70;;;1.47;;
9080;SDS011;13509;50.760;6.080;2023-06-26T13:01:06;14.57;;;2.60;;
9080;SDS011;13509;50.760;6.080;2023-06-26T13:03:40;5.43;;;1.60;;
9080;SDS011;13509;50.760;6.080;2023-06-26T13:06:08;3.50;;;1.87;;
9080;SDS011;13509;50.760;6.080;2023-06-26T13:08:38;9.20;;;1.80;;
9080;SDS011;13509;50.760;6.080;2023-06-26T13:11:06;4.23;;;1.70;;
9080;SDS011;13509;50.760;6.080;2023-06-26T13:13:35;9.13;;;2.07;;
9080;SDS011;13509;50.760;6.080;2023-06-26T13:16:03;6.50;;;1.57;;
9080;SDS011;13509;50.760;6.080;2023-06-26T13:18:31;5.47;;;1.70;;
9080;SDS011;13509;50.760;6.080;2023-06-26T13:21:00;3.30;;;1.43;;
9080;SDS011;13509;50.760;6.080;2023-06-26T13:23:28;3.73;;;1.50;;
9080;SDS011;13509;50.760;6.080;2023-06-26T13:25:57;5.33;;;1.57;;
9080;SDS011;13509;50.760;6.080;2023-06-26T13:28:26;6.10;;;1.43;;
9080;SDS011;13509;50.760;6.080;2023-06-26T13:30:54;5.47;;;1.60;;
9080;SDS011;13509;50.760;6.080;2023-06-26T13:33:22;3.47;;;1.47;;
9080;SDS011;13509;50.760;6.080;2023-06-26T13:35:51;4.60;;;1.70;;
9080;SDS011;13509;50.760;6.080;2023-06-26T13:38:20;4.40;;;1.73;;
9080;SDS011;13509;50.760;6.080;2023-06-26T13:40:50;2.37;;;1.80;;
9080;SDS011;13509;50.760;6.080;2023-06-26T13:43:21;3.70;;;1.97;;
9080;SDS011;13509;50.760;6.080;2023-06-26T13:45:49;3.93;;;1.77;;
9080;SDS011;13509;50.760;6.080;2023-06-26T13:48:18;4.83;;;1.60;;
9080;SDS011;13509;50.760;6.080;2023-06-26T13:50:46;4.97;;;1.67;;
9080;SDS011;13509;50.760;6.080;2023-06-26T13:53:20;2.90;;;1.47;;
9080;SDS011;13509;50.760;6.080;2023-06-26T13:55:48;4.57;;;1.70;;
9080;SDS011;13509;50.760;6.080;2023-06-26T13:58:16;3.47;;;1.50;;
9080;SDS011;13509;50.760;6.080;2023-06-26T14:00:50;2.83;;;1.80;;
9080;SDS011;13509;50.760;6.080;2023-06-26T14:03:19;3.90;;;1.73;;
9080;SDS011;13509;50.760;6.080;2023-06-26T14:05:48;3.43;;;1.43;;
9080;SDS011;13509;50.760;6.080;2023-06-26T14:08:16;2.70;;;1.30;;
9080;SDS011;13509;50.760;6.080;2023-06-26T14:10:44;3.13;;;1.30;;
9080;SDS011;13509;50.760;6.080;2023-06-26T14:13:13;3.10;;;1.53;;
9080;SDS011;13509;50.760;6.080;2023-06-26T14:15:42;3.50;;;1.50;;
9080;SDS011;13509;50.760;6.080;2023-06-26T14:18:11;2.00;;;1.50;;
9080;SDS011;13509;50.760;6.080;2023-06-26T14:20:40;6.20;;;1.83;;
9080;SDS011;13509;50.760;6.080;2023-06-26T14:23:08;5.70;;;1.67;;
9080;SDS011;13509;50.760;6.080;2023-06-26T14:25:36;3.63;;;1.83;;
9080;SDS011;13509;50.760;6.080;2023-06-26T14:28:04;5.93;;;1.83;;
9080;SDS011;13509;50.760;6.080;2023-06-26T14:30:33;4.87;;;1.80;;
9080;SDS011;13509;50.760;6.080;2023-06-26T14:33:01;5.40;;;1.60;;
9080;SDS011;13509;50.760;6.080;2023-06-26T14:35:31;5.53;;;1.90;;
9080;SDS011;13509;50.760;6.080;2023-06-26T14:37:59;5.17;;;2.00;;
9080;SDS011;13509;50.760;6.080;2023-06-26T14:40:27;2.83;;;1.70;;
9080;SDS011;13509;50.760;6.080;2023-06-26T14:42:56;6.77;;;1.80;;
9080;SDS011;13509;50.760;6.080;2023-06-26T14:45:25;5.53;;;1.73;;
9080;SDS011;13509;50.760;6.080;2023-06-26T14:47:54;4.23;;;1.80;;
9080;SDS011;13509;50.760;6.080;2023-06-26T14:50:22;3.43;;;1.63;;
9080;SDS011;13509;50.760;6.080;2023-06-26T14:52:51;4.27;;;1.70;;
9080;SDS011;13509;50.760;6.080;2023-06-26T14:55:20;3.13;;;1.43;;
9080;SDS011;13509;50.760;6.080;2023-06-26T14:57:48;5.53;;;1.70;;
9080;SDS011;13509;50.760;6.080;2023-06-26T15:00:17;3.83;;;1.53;;
9080;SDS011;13509;50.760;6.080;2023-06-26T15:02:45;6.20;;;1.87;;
9080;SDS011;13509;50.760;6.080;2023-06-26T15:05:14;2.60;;;1.73;;
9080;SDS011;13509;50.760;6.080;2023-06-26T15:07:42;4.20;;;1.70;;
9080;SDS011;13509;50.760;6.080;2023-06-26T15:10:12;1.93;;;1.27;;
9080;SDS011;13509;50.760;6.080;2023-06-26T15:12:40;3.77;;;1.60;;
9080;SDS011;13509;50.760;6.080;2023-06-26T15:15:08;2.77;;;1.53;;
9080;SDS011;13509;50.760;6.080;2023-06-26T15:17:37;4.13;;;1.50;;
9080;SDS011;13509;50.760;6.080;2023-06-26T15:20:06;4.67;;;1.70;;
9080;SDS011;13509;50.760;6.080;2023-06-26T15:22:34;4.23;;;2.03;;